createdAt,value
2017-03-29T00:00:59.177Z,-1.31
2017-03-29T00:01:59.154Z,-1.33
2017-03-29T00:02:59.139Z,-1.29
2017-03-29T00:03:59.130Z,-1.33
2017-03-29T00:04:59.108Z,-1.29
2017-03-29T00:05:59.098Z,-1.23
2017-03-29T00:06:59.081Z,-1.36
2017-03-29T00:07:59.065Z,-1.23
2017-03-29T00:08:59.047Z,-1.29
2017-03-29T00:09:59.037Z,-1.02
2017-03-29T00:10:59.015Z,-0.96
2017-03-29T00:11:59.005Z,-0.96
2017-03-29T00:12:58.985Z,-0.86
2017-03-29T00:13:58.968Z,-0.92
2017-03-29T00:14:58.952Z,-0.92
2017-03-29T00:15:58.937Z,-1.08
2017-03-29T00:16:58.916Z,-1
2017-03-29T00:17:58.904Z,-1.07
2017-03-29T00:18:58.886Z,-1.14
2017-03-29T00:19:58.873Z,-0.97
2017-03-29T00:20:58.860Z,-1.07
2017-03-29T00:21:58.842Z,-1.03
2017-03-29T00:22:58.826Z,-1
2017-03-29T00:23:58.808Z,-1.08
2017-03-29T00:24:58.798Z,-1.05
2017-03-29T00:25:58.779Z,-0.99
2017-03-29T00:26:58.764Z,-0.9
2017-03-29T00:27:58.747Z,-0.97
2017-03-29T00:28:58.740Z,-0.95
2017-03-29T00:29:58.716Z,-1
2017-03-29T00:30:58.701Z,-0.96
2017-03-29T00:31:58.686Z,-0.96
2017-03-29T00:32:58.668Z,-0.95
2017-03-29T00:33:58.653Z,-0.81
2017-03-29T00:34:58.338Z,-0.67
2017-03-29T00:35:58.628Z,-0.6
2017-03-29T00:36:58.615Z,-0.71
2017-03-29T00:37:58.601Z,-0.76
2017-03-29T00:38:58.581Z,-0.73
2017-03-29T00:39:58.567Z,-0.58
2017-03-29T00:40:58.548Z,-0.5
2017-03-29T00:41:58.533Z,-0.59
2017-03-29T00:42:58.521Z,-0.71
2017-03-29T00:43:58.505Z,-0.86
2017-03-29T00:44:58.490Z,-0.89
2017-03-29T00:45:58.475Z,-0.89
2017-03-29T00:46:58.457Z,-0.92
2017-03-29T00:47:58.444Z,-0.86
2017-03-29T00:48:58.426Z,-0.81
2017-03-29T00:49:58.410Z,-0.81
2017-03-29T00:50:58.398Z,-0.86
2017-03-29T00:51:58.385Z,-0.92
2017-03-29T00:52:58.363Z,-0.76
2017-03-29T00:53:58.352Z,-0.73
2017-03-29T00:54:58.333Z,-0.77
2017-03-29T00:55:58.324Z,-0.78
2017-03-29T00:56:58.307Z,-0.76
2017-03-29T00:57:58.297Z,-0.62
2017-03-29T00:58:58.273Z,-0.81
2017-03-29T00:59:57.955Z,-0.76
2017-03-29T01:00:58.244Z,-0.6
2017-03-29T01:01:58.226Z,-0.6
2017-03-29T01:02:58.214Z,-0.68
2017-03-29T01:03:58.195Z,-0.76
2017-03-29T01:04:58.181Z,-0.96
2017-03-29T01:05:58.172Z,-0.9
2017-03-29T01:06:58.159Z,-0.9
2017-03-29T01:07:58.133Z,-0.77
2017-03-29T01:08:58.155Z,-0.96
2017-03-29T01:09:58.136Z,-1.07
2017-03-29T01:10:58.095Z,-1.08
2017-03-29T01:11:58.076Z,-0.99
2017-03-29T01:12:58.059Z,-0.96
2017-03-29T01:13:58.050Z,-0.89
2017-03-29T01:14:58.028Z,-0.96
2017-03-29T01:15:58.011Z,-0.93
2017-03-29T01:16:57.998Z,-0.92
2017-03-29T01:17:57.983Z,-1.03
2017-03-29T01:18:57.965Z,-1.11
2017-03-29T01:19:57.947Z,-1.17
2017-03-29T01:20:57.931Z,-1.17
2017-03-29T01:21:57.916Z,-1.11
2017-03-29T01:22:57.906Z,-1.1
2017-03-29T01:23:57.583Z,-1.05
2017-03-29T01:24:57.869Z,-0.96
2017-03-29T01:25:57.851Z,-0.93
2017-03-29T01:26:57.835Z,-1.1
2017-03-29T01:27:57.822Z,-1.13
2017-03-29T01:28:57.811Z,-1.11
2017-03-29T01:29:57.792Z,-1.08
2017-03-29T01:30:57.775Z,-0.97
2017-03-29T01:31:57.764Z,-1.25
2017-03-29T01:32:57.745Z,-1.31
2017-03-29T01:33:57.729Z,-1.15
2017-03-29T01:34:57.711Z,-1.15
2017-03-29T01:35:57.694Z,-1.05
2017-03-29T01:36:57.680Z,-0.96
2017-03-29T01:37:57.659Z,-1.23
2017-03-29T01:38:57.647Z,-1.31
2017-03-29T01:39:57.633Z,-1.29
2017-03-29T01:40:57.614Z,-1.31
2017-03-29T01:41:57.601Z,-1.26
2017-03-29T01:42:57.581Z,-1.35
2017-03-29T01:43:57.569Z,-1.33
2017-03-29T01:44:57.554Z,-1.2
2017-03-29T01:45:57.540Z,-1.25
2017-03-29T01:46:57.518Z,-1.25
2017-03-29T01:47:57.505Z,-1.33
2017-03-29T01:48:57.486Z,-1.32
2017-03-29T01:49:57.472Z,-1.25
2017-03-29T01:50:57.453Z,-1.29
2017-03-29T01:51:57.443Z,-1.18
2017-03-29T01:52:57.421Z,-1.2
2017-03-29T01:53:57.415Z,-1.2
2017-03-29T01:54:57.392Z,-1.2
2017-03-29T01:55:57.381Z,-1.08
2017-03-29T01:56:57.362Z,-1.08
2017-03-29T01:57:57.351Z,-1.11
2017-03-29T01:58:57.331Z,-1.11
2017-03-29T01:59:57.314Z,-0.9
2017-03-29T02:00:57.294Z,-0.89
2017-03-29T02:01:57.278Z,-0.76
2017-03-29T02:02:57.266Z,-0.73
2017-03-29T02:03:57.250Z,-0.83
2017-03-29T02:04:57.237Z,-0.78
2017-03-29T02:05:57.216Z,-0.78
2017-03-29T02:06:57.206Z,-0.85
2017-03-29T02:07:57.190Z,-1.02
2017-03-29T02:08:57.178Z,-1.23
2017-03-29T02:09:57.157Z,-1.33
2017-03-29T02:10:57.142Z,-1.29
2017-03-29T02:11:56.825Z,-1.31
2017-03-29T02:12:57.107Z,-1.44
2017-03-29T02:13:57.100Z,-1.51
2017-03-29T02:14:57.082Z,-1.65
2017-03-29T02:15:57.061Z,-1.67
2017-03-29T02:16:57.042Z,-1.67
2017-03-29T02:17:57.038Z,-1.77
2017-03-29T02:18:57.015Z,-1.78
2017-03-29T02:19:57.000Z,-1.82
2017-03-29T02:20:56.982Z,-1.74
2017-03-29T02:21:56.966Z,-1.68
2017-03-29T02:22:56.947Z,-1.57
2017-03-29T02:23:56.930Z,-1.59
2017-03-29T02:24:56.911Z,-1.67
2017-03-29T02:25:56.599Z,-1.67
2017-03-29T02:26:56.882Z,-1.7
2017-03-29T02:27:56.864Z,-1.68
2017-03-29T02:28:56.852Z,-1.77
2017-03-29T02:29:56.828Z,-1.75
2017-03-29T02:30:56.814Z,-1.68
2017-03-29T02:31:56.797Z,-1.56
2017-03-29T02:32:56.796Z,-1.47
2017-03-29T02:33:56.772Z,-1.38
2017-03-29T02:34:56.745Z,-1.54
2017-03-29T02:35:56.733Z,-1.51
2017-03-29T02:36:56.711Z,-1.53
2017-03-29T02:37:56.697Z,-1.53
2017-03-29T02:38:56.679Z,-1.5
2017-03-29T02:39:56.661Z,-1.41
2017-03-29T02:40:56.649Z,-1.39
2017-03-29T02:41:56.633Z,-1.28
2017-03-29T02:42:56.619Z,-1.35
2017-03-29T02:43:56.600Z,-1.31
2017-03-29T02:44:56.584Z,-1.39
2017-03-29T02:45:56.567Z,-1.41
2017-03-29T02:46:56.554Z,-1.64
2017-03-29T02:47:56.537Z,-1.82
2017-03-29T02:48:56.529Z,-1.98
2017-03-29T02:49:56.545Z,-1.92
2017-03-29T02:50:56.495Z,-2.04
2017-03-29T02:51:56.478Z,-2.11
2017-03-29T02:52:56.463Z,-2.04
2017-03-29T02:53:56.445Z,-2.06
2017-03-29T02:54:56.430Z,-1.92
2017-03-29T02:55:56.412Z,-1.88
2017-03-29T02:56:56.402Z,-1.83
2017-03-29T02:57:56.385Z,-1.83
2017-03-29T02:58:56.376Z,-1.9
2017-03-29T02:59:56.355Z,-1.8
2017-03-29T03:00:56.341Z,-1.72
2017-03-29T03:01:56.321Z,-1.72
2017-03-29T03:02:56.302Z,-1.65
2017-03-29T03:03:56.289Z,-1.65
2017-03-29T03:04:56.274Z,-1.5
2017-03-29T03:05:56.264Z,-1.57
2017-03-29T03:06:56.238Z,-1.56
2017-03-29T03:07:56.228Z,-1.8
2017-03-29T03:08:56.214Z,-1.72
2017-03-29T03:09:56.194Z,-1.85
2017-03-29T03:10:56.175Z,-1.89
2017-03-29T03:11:56.164Z,-1.72
2017-03-29T03:12:56.150Z,-1.5
2017-03-29T03:13:56.130Z,-1.59
2017-03-29T03:14:56.114Z,-1.49
2017-03-29T03:15:56.100Z,-1.53
2017-03-29T03:16:56.084Z,-1.61
2017-03-29T03:17:56.071Z,-1.68
2017-03-29T03:18:56.054Z,-1.68
2017-03-29T03:19:56.037Z,-1.53
2017-03-29T03:20:56.019Z,-1.51
2017-03-29T03:21:56.006Z,-1.44
2017-03-29T03:22:55.985Z,-1.44
2017-03-29T03:23:55.972Z,-1.43
2017-03-29T03:24:55.953Z,-1.57
2017-03-29T03:25:55.942Z,-1.54
2017-03-29T03:26:55.922Z,-1.67
2017-03-29T03:27:55.915Z,-1.62
2017-03-29T03:28:55.891Z,-1.49
2017-03-29T03:29:55.873Z,-1.33
2017-03-29T03:30:55.857Z,-1.38
2017-03-29T03:31:55.848Z,-1.41
2017-03-29T03:32:55.832Z,-1.38
2017-03-29T03:33:55.812Z,-1.49
2017-03-29T03:34:55.492Z,-1.64
2017-03-29T03:35:55.779Z,-1.68
2017-03-29T03:36:55.769Z,-1.7
2017-03-29T03:37:55.744Z,-1.62
2017-03-29T03:38:55.729Z,-1.68
2017-03-29T03:39:55.721Z,-1.62
2017-03-29T03:40:55.699Z,-1.49
2017-03-29T03:41:55.685Z,-1.41
2017-03-29T03:42:55.668Z,-1.29
2017-03-29T03:43:55.655Z,-1.33
2017-03-29T03:44:55.635Z,-1.49
2017-03-29T03:45:55.620Z,-1.35
2017-03-29T03:46:55.641Z,-1.39
2017-03-29T03:47:55.588Z,-1.38
2017-03-29T03:48:55.573Z,-1.44
2017-03-29T03:49:55.558Z,-1.47
2017-03-29T03:50:55.543Z,-1.26
2017-03-29T03:51:55.531Z,-1.26
2017-03-29T03:52:55.513Z,-1.17
2017-03-29T03:53:55.496Z,-1.02
2017-03-29T03:54:55.482Z,-1.1
2017-03-29T03:55:55.464Z,-1.38
2017-03-29T03:56:55.456Z,-1.71
2017-03-29T03:57:55.432Z,-1.83
2017-03-29T03:58:55.418Z,-1.96
2017-03-29T03:59:55.399Z,-2.03
2017-03-29T04:00:55.385Z,-2.08
2017-03-29T04:01:55.069Z,-1.98
2017-03-29T04:02:55.356Z,-2.22
2017-03-29T04:03:55.339Z,-2.19
2017-03-29T04:04:55.327Z,-2.26
2017-03-29T04:05:55.307Z,-2.21
2017-03-29T04:06:55.291Z,-2.22
2017-03-29T04:07:55.276Z,-2.25
2017-03-29T04:08:55.266Z,-2.21
2017-03-29T04:09:55.244Z,-2.28
2017-03-29T04:10:55.230Z,-2.21
2017-03-29T04:11:55.215Z,-2.26
2017-03-29T04:12:55.193Z,-2.22
2017-03-29T04:13:55.182Z,-2.22
2017-03-29T04:14:55.166Z,-2.25
2017-03-29T04:15:55.150Z,-2.22
2017-03-29T04:16:55.130Z,-2.04
2017-03-29T04:17:55.117Z,-2.01
2017-03-29T04:18:55.127Z,-2.03
2017-03-29T04:19:55.084Z,-1.93
2017-03-29T04:20:55.068Z,-1.82
2017-03-29T04:21:55.054Z,-1.71
2017-03-29T04:22:55.031Z,-1.67
2017-03-29T04:23:55.017Z,-1.72
2017-03-29T04:24:55.003Z,-1.75
2017-03-29T04:25:54.985Z,-1.67
2017-03-29T04:26:54.972Z,-1.62
2017-03-29T04:27:54.955Z,-1.5
2017-03-29T04:28:54.941Z,-1.5
2017-03-29T04:29:54.927Z,-1.51
2017-03-29T04:30:54.909Z,-1.53
2017-03-29T04:31:54.892Z,-1.51
2017-03-29T04:32:54.876Z,-1.57
2017-03-29T04:33:54.561Z,-1.51
2017-03-29T04:34:54.845Z,-1.61
2017-03-29T04:35:54.831Z,-1.9
2017-03-29T04:36:54.822Z,-1.98
2017-03-29T04:37:54.827Z,-2.07
2017-03-29T04:38:54.782Z,-2.07
2017-03-29T04:39:54.765Z,-2.08
2017-03-29T04:40:54.751Z,-2.03
2017-03-29T04:41:54.733Z,-1.85
2017-03-29T04:42:54.721Z,-1.8
2017-03-29T04:43:54.400Z,-1.77
2017-03-29T04:44:54.681Z,-1.75
2017-03-29T04:45:54.666Z,-1.74
2017-03-29T04:46:54.649Z,-1.68
2017-03-29T04:47:54.631Z,-1.67
2017-03-29T04:48:54.317Z,-1.59
2017-03-29T04:49:54.598Z,-1.51
2017-03-29T04:50:54.281Z,-1.61
2017-03-29T04:51:54.267Z,-1.38
2017-03-29T04:52:54.554Z,-1.41
2017-03-29T04:53:54.535Z,-1.51
2017-03-29T04:54:54.522Z,-1.53
2017-03-29T04:55:54.501Z,-1.46
2017-03-29T04:56:54.488Z,-1.43
2017-03-29T04:57:54.471Z,-1.28
2017-03-29T04:58:54.453Z,-1.32
2017-03-29T04:59:54.438Z,-1.47
2017-03-29T05:00:54.419Z,-1.68
2017-03-29T05:01:54.407Z,-1.61
2017-03-29T05:02:54.387Z,-1.7
2017-03-29T05:03:54.372Z,-1.65
2017-03-29T05:04:54.358Z,-1.57
2017-03-29T05:05:54.342Z,-1.54
2017-03-29T05:06:54.328Z,-1.49
2017-03-29T05:07:54.316Z,-1.39
2017-03-29T05:08:54.298Z,-1.29
2017-03-29T05:09:54.277Z,-1.28
2017-03-29T05:10:54.265Z,-1.07
2017-03-29T05:11:54.247Z,-1.14
2017-03-29T05:12:54.235Z,-1.08
2017-03-29T05:13:54.220Z,-0.92
2017-03-29T05:14:54.202Z,-0.89
2017-03-29T05:15:54.188Z,-0.78
2017-03-29T05:16:53.866Z,-0.7
2017-03-29T05:17:54.158Z,-0.9
2017-03-29T05:18:53.837Z,-0.78
2017-03-29T05:19:54.125Z,-0.76
2017-03-29T05:20:54.109Z,-0.73
2017-03-29T05:21:54.096Z,-0.83
2017-03-29T05:22:54.083Z,-0.8
2017-03-29T05:23:54.066Z,-0.68
2017-03-29T05:24:54.051Z,-0.65
2017-03-29T05:25:54.036Z,-0.52
2017-03-29T05:26:54.018Z,-0.24
2017-03-29T05:27:54.007Z,-0.14
2017-03-29T05:28:53.991Z,-0.42
2017-03-29T05:29:53.978Z,-0.65
2017-03-29T05:30:53.964Z,-0.76
2017-03-29T05:31:53.972Z,-0.96
2017-03-29T05:32:53.929Z,-0.96
2017-03-29T05:33:53.918Z,-1
2017-03-29T05:34:53.899Z,-0.89
2017-03-29T05:35:53.886Z,-1.13
2017-03-29T05:36:53.876Z,-1.35
2017-03-29T05:37:53.862Z,-1.44
2017-03-29T05:38:53.837Z,-1.32
2017-03-29T05:39:53.824Z,-1.31
2017-03-29T05:40:53.805Z,-1.35
2017-03-29T05:41:53.790Z,-1.46
2017-03-29T05:42:53.773Z,-1.31
2017-03-29T05:43:53.755Z,-1.31
2017-03-29T05:44:53.743Z,-1.41
2017-03-29T05:45:53.728Z,-1.51
2017-03-29T05:46:53.717Z,-1.62
2017-03-29T05:47:53.693Z,-1.39
2017-03-29T05:48:53.680Z,-1.18
2017-03-29T05:49:53.658Z,-1.03
2017-03-29T05:50:53.644Z,-1
2017-03-29T05:51:53.838Z,-0.89
2017-03-29T05:52:53.815Z,-0.92
2017-03-29T05:53:53.603Z,-0.93
2017-03-29T05:54:53.592Z,-0.74
2017-03-29T05:55:53.266Z,-0.77
2017-03-29T05:56:53.552Z,-1
2017-03-29T05:57:53.536Z,-1.03
2017-03-29T05:58:53.520Z,-0.95
2017-03-29T05:59:53.503Z,-0.97
2017-03-29T06:00:53.485Z,-0.92
2017-03-29T06:01:53.475Z,-0.62
2017-03-29T06:02:53.458Z,-0.49
2017-03-29T06:03:53.445Z,-0.3
2017-03-29T06:04:53.425Z,-0.13
2017-03-29T06:05:53.409Z,0.25
2017-03-29T06:06:53.388Z,-0.19
2017-03-29T06:07:53.378Z,-0.27
2017-03-29T06:08:53.361Z,-0.39
2017-03-29T06:09:53.349Z,-0.34
2017-03-29T06:10:53.331Z,-0.42
2017-03-29T06:11:53.314Z,-0.37
2017-03-29T06:12:53.300Z,-0.45
2017-03-29T06:13:53.289Z,-0.68
2017-03-29T06:14:53.273Z,-0.7
2017-03-29T06:15:53.250Z,-0.55
2017-03-29T06:16:53.238Z,-0.35
2017-03-29T06:17:53.228Z,-0.01
2017-03-29T06:18:53.207Z,0.31
2017-03-29T06:19:53.188Z,0.6
2017-03-29T06:20:53.184Z,0.68
2017-03-29T06:21:53.160Z,0.64
2017-03-29T06:22:53.146Z,0.82
2017-03-29T06:23:53.130Z,0.95
2017-03-29T06:24:52.814Z,0.81
2017-03-29T06:25:53.100Z,0.45
2017-03-29T06:26:53.087Z,0.35
2017-03-29T06:27:53.272Z,0.52
2017-03-29T06:28:53.056Z,0.7
2017-03-29T06:29:53.044Z,0.77
2017-03-29T06:30:53.032Z,0.75
2017-03-29T06:31:53.218Z,0.81
2017-03-29T06:32:53.001Z,1.13
2017-03-29T06:33:52.986Z,1.53
2017-03-29T06:34:52.973Z,1.88
2017-03-29T06:35:52.960Z,2.09
2017-03-29T06:36:52.942Z,2.5
2017-03-29T06:37:52.928Z,2.97
2017-03-29T06:38:52.918Z,3.26
2017-03-29T06:39:52.901Z,3.74
2017-03-29T06:40:52.891Z,4.06
2017-03-29T06:41:52.871Z,4.21
2017-03-29T06:42:52.865Z,4.42
2017-03-29T06:43:52.849Z,4.26
2017-03-29T06:44:52.833Z,4.28
2017-03-29T06:45:52.816Z,4.38
2017-03-29T06:46:52.813Z,4.8
2017-03-29T06:47:52.791Z,4.94
2017-03-29T06:48:52.781Z,4.88
2017-03-29T06:49:52.766Z,5.49
2017-03-29T06:50:52.753Z,5.67
2017-03-29T06:51:52.739Z,5.85
2017-03-29T06:52:52.727Z,6.1
2017-03-29T06:53:52.717Z,6.03
2017-03-29T06:54:52.096Z,5.99
2017-03-29T06:55:52.695Z,6.1
2017-03-29T06:56:52.674Z,6.43
2017-03-29T06:57:52.663Z,6.05
2017-03-29T06:58:52.349Z,6.2
2017-03-29T06:59:52.638Z,6.11
2017-03-29T07:00:52.323Z,5.87
2017-03-29T07:01:52.613Z,6.25
2017-03-29T07:02:52.609Z,6.02
2017-03-29T07:04:06.204Z,6.51
2017-03-29T07:04:52.533Z,6.55
2017-03-29T07:05:52.567Z,6.14
2017-03-29T07:06:52.553Z,5.47
2017-03-29T07:07:52.749Z,5.01
2017-03-29T07:08:52.533Z,5.06
2017-03-29T07:09:52.518Z,5.52
2017-03-29T07:10:52.208Z,5.55
2017-03-29T07:11:52.491Z,5.6
2017-03-29T07:12:52.485Z,5.85
2017-03-29T07:13:52.474Z,6.2
2017-03-29T07:14:52.464Z,6.53
2017-03-29T07:15:52.448Z,6.64
2017-03-29T07:16:52.134Z,6.96
2017-03-29T07:17:52.427Z,7.08
2017-03-29T07:18:52.410Z,7.05
2017-03-29T07:19:52.398Z,7.18
2017-03-29T07:20:52.392Z,6.27
2017-03-29T07:21:52.379Z,6.06
2017-03-29T07:22:52.372Z,5.92
2017-03-29T07:23:52.056Z,6.27
2017-03-29T07:24:52.346Z,5.26
2017-03-29T07:25:52.334Z,4.5
2017-03-29T07:26:52.322Z,3.96
2017-03-29T07:27:52.313Z,4.36
2017-03-29T07:28:52.300Z,4.91
2017-03-29T07:29:52.298Z,4.75
2017-03-29T07:30:52.276Z,4.46
2017-03-29T07:31:52.267Z,4.2
2017-03-29T07:32:52.253Z,4.35
2017-03-29T07:33:52.240Z,4.8
2017-03-29T07:38:52.179Z,6.96
2017-03-29T07:39:51.870Z,7.3
2017-03-29T07:40:52.162Z,7.41
2017-03-29T07:41:52.143Z,7.37
2017-03-29T07:42:52.134Z,7.21
2017-03-29T07:43:52.121Z,7.11
2017-03-29T07:44:52.314Z,7.04
2017-03-29T07:45:52.104Z,6.93
2017-03-29T07:46:52.088Z,6.89
2017-03-29T07:47:52.086Z,7.16
2017-03-29T07:48:52.066Z,7.73
2017-03-29T07:49:52.055Z,8.03
2017-03-29T07:50:52.044Z,8.45
2017-03-29T07:51:52.034Z,8.29
2017-03-29T07:52:52.022Z,8.22
2017-03-29T07:53:51.714Z,7.91
2017-03-29T07:54:52.004Z,7.57
2017-03-29T07:55:51.995Z,7
2017-03-29T07:56:51.980Z,6.76
2017-03-29T07:57:51.971Z,6.54
2017-03-29T07:58:51.658Z,6.45
2017-03-29T07:59:51.649Z,6.54
2017-03-29T08:00:51.943Z,6.61
2017-03-29T08:01:51.933Z,6.73
2017-03-29T08:02:51.918Z,6.94
2017-03-29T08:03:51.910Z,6.72
2017-03-29T08:04:51.596Z,6.69
2017-03-29T08:05:51.889Z,6.87
2017-03-29T08:06:51.579Z,6.33
2017-03-29T08:07:51.875Z,6.48
2017-03-29T08:08:51.858Z,6.97
2017-03-29T08:09:51.849Z,7.32
2017-03-29T08:10:52.046Z,7.16
2017-03-29T08:11:51.830Z,6.99
2017-03-29T08:12:51.819Z,7.42
2017-03-29T08:13:51.810Z,7.54
2017-03-29T08:14:51.707Z,8.2
2017-03-29T08:15:51.688Z,8
2017-03-29T08:16:51.991Z,8.36
2017-03-29T08:17:51.769Z,8
2017-03-29T08:18:51.758Z,8.39
2017-03-29T08:19:51.749Z,8.76
2017-03-29T08:20:51.738Z,8.91
2017-03-29T08:21:51.432Z,9.26
2017-03-29T08:22:51.723Z,9.59
2017-03-29T08:23:51.716Z,9.93
2017-03-29T08:24:51.707Z,10.13
2017-03-29T08:25:51.694Z,9.96
2017-03-29T08:26:51.684Z,9.85
2017-03-29T08:27:51.673Z,9.91
2017-03-29T08:28:51.363Z,9.63
2017-03-29T08:29:51.354Z,9.08
2017-03-29T08:30:51.651Z,9.22
2017-03-29T08:31:51.641Z,8.64
2017-03-29T08:32:51.633Z,8.36
2017-03-29T08:33:51.625Z,8.25
2017-03-29T08:34:51.632Z,8.5
2017-03-29T08:35:51.606Z,7.91
2017-03-29T08:36:51.595Z,6.96
2017-03-29T08:37:51.585Z,6.63
2017-03-29T08:38:51.572Z,6.54
2017-03-29T08:39:51.567Z,6.51
2017-03-29T08:40:51.557Z,5.93
2017-03-29T08:41:51.547Z,5.45
2017-03-29T08:42:51.539Z,4.93
2017-03-29T08:43:51.528Z,5.33
2017-03-29T08:44:51.523Z,5.63
2017-03-29T08:45:51.505Z,5.58
2017-03-29T08:46:51.500Z,5.56
2017-03-29T08:47:51.482Z,5.96
2017-03-29T08:48:51.473Z,6.25
2017-03-29T08:49:51.463Z,6.83
2017-03-29T08:50:51.453Z,6.97
2017-03-29T08:51:51.441Z,6.42
2017-03-29T08:52:51.632Z,6.46
2017-03-29T08:53:51.422Z,6.01
2017-03-29T08:54:51.407Z,6.01
2017-03-29T08:55:51.093Z,6.2
2017-03-29T08:56:51.387Z,5.49
2017-03-29T08:57:51.373Z,4.97
2017-03-29T08:58:51.061Z,4.83
2017-03-29T08:59:51.350Z,5.3
2017-03-29T09:00:50.738Z,6.02
2017-03-29T09:01:51.329Z,6.53
2017-03-29T09:02:51.319Z,6.53
2017-03-29T09:03:51.308Z,6.83
2017-03-29T09:04:51.297Z,7.27
2017-03-29T09:05:50.986Z,7.41
2017-03-29T09:06:51.279Z,7.81
2017-03-29T09:07:51.267Z,7.67
2017-03-29T09:08:51.254Z,7.07
2017-03-29T09:09:51.247Z,5.95
2017-03-29T09:10:50.935Z,5.32
2017-03-29T09:11:51.225Z,5.41
2017-03-29T09:12:51.210Z,5.47
2017-03-29T09:13:51.196Z,5.78
2017-03-29T09:14:51.189Z,6.08
2017-03-29T09:15:51.178Z,5.84
2017-03-29T09:16:51.167Z,5.37
2017-03-29T09:17:51.151Z,4.99
2017-03-29T09:18:51.145Z,4.91
2017-03-29T09:19:51.133Z,5.01
2017-03-29T09:20:51.122Z,5.51
2017-03-29T09:21:51.114Z,5.01
2017-03-29T09:22:51.097Z,4.5
2017-03-29T09:23:51.089Z,4.11
2017-03-29T09:24:50.772Z,4.47
2017-03-29T09:25:51.064Z,4.17
2017-03-29T09:26:50.747Z,3.86
2017-03-29T09:27:51.039Z,3.82
2017-03-29T09:28:51.030Z,3.7
2017-03-29T09:29:51.010Z,3.82
2017-03-29T09:30:51.005Z,4.04
2017-03-29T09:31:50.993Z,4.16
2017-03-29T09:32:50.980Z,4.2
2017-03-29T09:33:50.969Z,4.38
2017-03-29T09:34:50.958Z,4.59
2017-03-29T09:35:50.949Z,4.97
2017-03-29T09:36:50.934Z,4.96
2017-03-29T09:37:50.920Z,4.93
2017-03-29T09:38:50.907Z,4.86
2017-03-29T09:39:50.891Z,5.32
2017-03-29T09:40:50.887Z,5.04
2017-03-29T09:41:50.870Z,4.62
2017-03-29T09:42:50.857Z,4.8
2017-03-29T09:43:50.847Z,4.69
2017-03-29T09:44:50.838Z,4.08
2017-03-29T09:45:50.826Z,3.46
2017-03-29T09:46:50.813Z,3.68
2017-03-29T09:47:50.800Z,3.41
2017-03-29T09:48:50.787Z,3.41
2017-03-29T09:49:50.778Z,4.08
2017-03-29T09:50:50.764Z,4.07
2017-03-29T09:51:50.751Z,4.62
2017-03-29T09:52:50.739Z,4.79
2017-03-29T09:53:50.725Z,3.98
2017-03-29T09:54:50.714Z,4.65
2017-03-29T09:55:50.700Z,4.99
2017-03-29T09:56:50.686Z,5.83
2017-03-29T09:57:50.719Z,6.14
2017-03-29T09:58:50.660Z,6.28
2017-03-29T09:59:50.653Z,6.53
2017-03-29T10:00:50.638Z,6.73
2017-03-29T10:01:50.623Z,6.83
2017-03-29T10:02:50.619Z,7.08
2017-03-29T10:03:50.602Z,7.26
2017-03-29T10:04:50.591Z,6.17
2017-03-29T10:05:50.575Z,6.25
2017-03-29T10:06:50.567Z,7.27
2017-03-29T10:07:50.549Z,8.07
2017-03-29T10:08:50.539Z,8.71
2017-03-29T10:09:50.532Z,9.62
2017-03-29T10:10:50.522Z,9.91
2017-03-29T10:11:50.510Z,9.7
2017-03-29T10:12:50.495Z,10.09
2017-03-29T10:13:50.490Z,10.29
2017-03-29T10:14:50.481Z,10.04
2017-03-29T10:15:50.464Z,9.49
2017-03-29T10:16:50.458Z,9.15
2017-03-29T10:17:50.445Z,8.85
2017-03-29T10:18:50.435Z,8.6
2017-03-29T10:19:50.429Z,6.6
2017-03-29T10:20:50.418Z,5.93
2017-03-29T10:21:50.406Z,5.56
2017-03-29T10:22:50.398Z,5.42
2017-03-29T10:23:50.383Z,5.6
2017-03-29T10:24:50.379Z,6.11
2017-03-29T10:25:50.364Z,5.84
2017-03-29T10:26:50.356Z,5.55
2017-03-29T10:27:50.342Z,5.33
2017-03-29T10:28:50.330Z,5.42
2017-03-29T10:29:50.020Z,6.27
2017-03-29T10:30:50.319Z,5.93
2017-03-29T10:31:50.300Z,5.26
2017-03-29T10:32:50.286Z,5.27
2017-03-29T10:33:50.284Z,5.33
2017-03-29T10:34:50.268Z,5.4
2017-03-29T10:35:50.255Z,5.74
2017-03-29T10:36:50.243Z,6.2
2017-03-29T10:37:50.234Z,6.86
2017-03-29T10:38:50.223Z,6.86
2017-03-29T10:39:50.211Z,6.57
2017-03-29T10:40:50.198Z,6.83
2017-03-29T10:41:50.186Z,7.07
2017-03-29T10:42:50.175Z,7.45
2017-03-29T10:43:50.161Z,7.11
2017-03-29T10:44:50.154Z,7.27
2017-03-29T10:45:50.145Z,7.86
2017-03-29T10:46:50.130Z,8.71
2017-03-29T10:47:50.117Z,9.63
2017-03-29T10:48:49.807Z,9.92
2017-03-29T10:49:50.095Z,9.08
2017-03-29T10:50:50.087Z,7.76
2017-03-29T10:51:50.077Z,6.94
2017-03-29T10:52:50.072Z,6.39
2017-03-29T10:53:50.054Z,6.27
2017-03-29T10:54:50.051Z,5.78
2017-03-29T10:55:50.037Z,5.75
2017-03-29T10:56:50.029Z,6.11
2017-03-29T10:57:50.016Z,5.29
2017-03-29T10:58:50.004Z,4.28
2017-03-29T10:59:49.994Z,3.62
2017-03-29T11:00:49.982Z,3.96
2017-03-29T11:01:49.968Z,4.24
2017-03-29T11:02:49.959Z,3.62
2017-03-29T11:03:49.950Z,3.45
2017-03-29T11:04:49.941Z,3.26
2017-03-29T11:05:49.926Z,3.57
2017-03-29T11:06:49.915Z,4.2
2017-03-29T11:07:49.907Z,3.63
2017-03-29T11:08:49.887Z,3.78
2017-03-29T11:09:49.877Z,3.54
2017-03-29T11:10:49.864Z,3.71
2017-03-29T11:11:49.856Z,4.26
2017-03-29T11:12:49.843Z,4.91
2017-03-29T11:13:49.827Z,5.48
2017-03-29T11:14:49.814Z,6.27
2017-03-29T11:15:49.804Z,6.86
2017-03-29T11:16:49.791Z,7.16
2017-03-29T11:17:49.769Z,6.87
2017-03-29T11:18:49.769Z,6.32
2017-03-29T11:19:49.750Z,5.52
2017-03-29T11:20:49.741Z,6.27
2017-03-29T11:21:49.729Z,6.76
2017-03-29T11:22:49.721Z,7.16
2017-03-29T11:23:49.700Z,6.94
2017-03-29T11:24:49.689Z,7.11
2017-03-29T11:25:49.681Z,6.53
2017-03-29T11:26:49.666Z,6.87
2017-03-29T11:27:49.673Z,7.5
2017-03-29T11:28:49.646Z,7.11
2017-03-29T11:29:49.632Z,7.54
2017-03-29T11:30:49.633Z,7.42
2017-03-29T11:31:49.610Z,7.99
2017-03-29T11:32:49.603Z,8.36
2017-03-29T11:33:49.585Z,7.47
2017-03-29T11:34:49.576Z,7.51
2017-03-29T11:35:49.575Z,7.01
2017-03-29T11:36:49.550Z,6.43
2017-03-29T11:37:49.547Z,6.2
2017-03-29T11:38:49.533Z,6.65
2017-03-29T11:39:49.525Z,7.04
2017-03-29T11:40:49.512Z,7.81
2017-03-29T11:41:49.506Z,7.18
2017-03-29T11:42:49.490Z,7
2017-03-29T11:43:49.487Z,6.72
2017-03-29T11:44:49.470Z,6.24
2017-03-29T11:45:49.460Z,6.19
2017-03-29T11:46:49.145Z,6.39
2017-03-29T11:47:49.438Z,6.39
2017-03-29T11:48:49.422Z,7.18
2017-03-29T11:49:49.412Z,7.45
2017-03-29T11:50:49.407Z,6.87
2017-03-29T11:51:49.388Z,6.57
2017-03-29T11:52:49.382Z,7.45
2017-03-29T11:53:49.366Z,7.52
2017-03-29T11:54:49.361Z,8.36
2017-03-29T11:55:49.349Z,8.71
2017-03-29T11:56:49.333Z,8.86
2017-03-29T11:57:49.325Z,8.61
2017-03-29T11:58:49.010Z,8.67
2017-03-29T11:59:49.306Z,8.31
2017-03-29T12:00:48.993Z,8.55
2017-03-29T12:01:49.282Z,8.45
2017-03-29T12:02:48.967Z,8.13
2017-03-29T12:03:49.260Z,6.48
2017-03-29T12:04:49.256Z,6.24
2017-03-29T12:05:49.244Z,5.99
2017-03-29T12:06:48.931Z,6.75
2017-03-29T12:07:49.218Z,6.87
2017-03-29T12:08:49.207Z,7.37
2017-03-29T12:09:49.197Z,7.26
2017-03-29T12:10:49.188Z,7.14
2017-03-29T12:11:49.184Z,6.01
2017-03-29T12:12:49.172Z,6.02
2017-03-29T12:13:48.856Z,7.07
2017-03-29T12:14:49.147Z,6.91
2017-03-29T12:15:49.134Z,6.53
2017-03-29T12:16:49.131Z,6.97
2017-03-29T12:17:49.114Z,7.77
2017-03-29T12:18:49.102Z,8.1
2017-03-29T12:19:49.091Z,8.03
2017-03-29T12:20:48.780Z,7.88
2017-03-29T12:21:48.778Z,7.92
2017-03-29T12:22:49.064Z,8.97
2017-03-29T12:23:48.743Z,9.6
2017-03-29T12:24:49.035Z,10.47
2017-03-29T12:25:49.028Z,10.78
2017-03-29T12:26:49.013Z,10.73
2017-03-29T12:27:49.003Z,10.6
2017-03-29T12:28:48.996Z,8.83
2017-03-29T12:29:48.987Z,8.14
2017-03-29T12:30:48.974Z,7.54
2017-03-29T12:31:48.971Z,7.6
2017-03-29T12:32:48.954Z,8.14
2017-03-29T12:33:48.948Z,7.12
2017-03-29T12:34:48.939Z,7.54
2017-03-29T12:35:48.924Z,8.52
2017-03-29T12:36:48.917Z,8.94
2017-03-29T12:37:48.937Z,9.88
2017-03-29T12:38:48.894Z,10.36
2017-03-29T12:39:48.889Z,11.23
2017-03-29T12:40:48.586Z,11.74
2017-03-29T12:41:48.872Z,11.9
2017-03-29T12:42:48.863Z,12.4
2017-03-29T12:43:48.852Z,12.05
2017-03-29T12:44:48.845Z,11.33
2017-03-29T12:45:48.540Z,10.86
2017-03-29T12:46:48.830Z,10.72
2017-03-29T12:47:48.516Z,8.91
2017-03-29T12:48:48.810Z,8.17
2017-03-29T12:49:48.803Z,7.24
2017-03-29T12:50:48.797Z,6.63
2017-03-29T12:51:48.791Z,6.65
2017-03-29T12:52:48.770Z,7.37
2017-03-29T12:53:48.767Z,8.46
2017-03-29T12:54:48.749Z,9.12
2017-03-29T12:55:48.745Z,9.04
2017-03-29T12:56:48.733Z,10.06
2017-03-29T12:57:48.725Z,9.95
2017-03-29T12:58:48.750Z,9.49
2017-03-29T12:59:48.708Z,8.45
2017-03-29T13:00:48.698Z,9.12
2017-03-29T13:01:48.700Z,8.98
2017-03-29T13:02:48.679Z,8.07
2017-03-29T13:03:48.667Z,8.6
2017-03-29T13:04:48.658Z,8.98
2017-03-29T13:05:48.652Z,8.63
2017-03-29T13:06:48.636Z,7.15
2017-03-29T13:07:48.626Z,7.55
2017-03-29T13:08:48.621Z,8.12
2017-03-29T13:09:48.613Z,7.14
2017-03-29T13:10:48.599Z,7.36
2017-03-29T13:11:48.588Z,7.33
2017-03-29T13:12:48.581Z,7.27